TimeEDT,TemperatureF,Dew PointF,Humidity,Sea Level PressureIn,VisibilityMPH,Wind Direction,Wind SpeedMPH,Gust SpeedMPH,PrecipitationIn,Events,Conditions,WindDirDegrees,DateUTC
12:53 AM,48.0,46.0,93,29.88,6.0,WSW,4.6,-,N/A,,Clear,250,2012-10-01 04:53:00
1:53 AM,48.0,46.0,93,29.89,8.0,West,4.6,-,N/A,,Clear,270,2012-10-01 05:53:00
2:53 AM,46.9,45.0,93,29.89,6.0,West,5.8,-,N/A,,Clear,260,2012-10-01 06:53:00
3:53 AM,46.9,45.0,93,29.89,5.0,WSW,4.6,-,N/A,,Clear,250,2012-10-01 07:53:00
4:53 AM,45.0,43.0,93,29.90,4.0,NW,4.6,-,N/A,,Clear,310,2012-10-01 08:53:00
6:53 AM,44.1,42.1,93,29.92,4.0,West,5.8,-,N/A,,Clear,270,2012-10-01 10:53:00
8:53 AM,51.1,48.0,89,29.96,6.0,West,6.9,-,N/A,,Clear,270,2012-10-01 12:53:00
9:53 AM,55.0,48.9,80,29.96,10.0,West,6.9,-,N/A,,Clear,270,2012-10-01 13:53:00
10:53 AM,60.1,48.9,67,29.96,10.0,WNW,6.9,-,N/A,,Clear,300,2012-10-01 14:53:00
11:53 AM,64.0,48.0,56,29.95,10.0,NW,9.2,-,N/A,,Clear,320,2012-10-01 15:53:00
12:53 PM,66.9,46.9,49,29.94,10.0,West,8.1,-,N/A,,Clear,270,2012-10-01 16:53:00
2:53 PM,68.0,44.1,42,29.92,10.0,SW,9.2,-,N/A,,Clear,230,2012-10-01 18:53:00
3:53 PM,68.0,46.0,45,29.92,10.0,WSW,5.8,-,N/A,,Clear,250,2012-10-01 19:53:00
4:53 PM,66.9,46.0,47,29.91,10.0,West,3.5,-,N/A,,Clear,270,2012-10-01 20:53:00
5:53 PM,66.0,46.9,50,29.92,10.0,Calm,Calm,-,N/A,,Clear,0,2012-10-01 21:53:00
6:53 PM,66.0,45.0,47,29.94,10.0,Calm,Calm,-,N/A,,Scattered Clouds,0,2012-10-01 22:53:00
7:53 PM,64.0,50.0,60,29.96,10.0,SSW,3.5,-,N/A,,Overcast,200,2012-10-01 23:53:00
8:53 PM,63.0,51.1,65,29.96,10.0,SSW,5.8,-,N/A,,Overcast,200,2012-10-02 00:53:00
9:53 PM,61.0,53.1,75,29.95,10.0,ENE,3.5,-,N/A,,Overcast,70,2012-10-02 01:53:00
11:53 PM,61.0,52.0,72,29.97,10.0,South,3.5,-,0.00,,Overcast,170,2012-10-02 03:53:00